ADDS METAR Data INFO
IDs: Format: Raw Decoded Include TAF

Data at: 0607 UTC 25 Jun 2018

PAHO 250553Z AUTO 27005KT 10SM OVC090 13/08 A2992 RMK AO2 SLP132 T01280078 10139 20128 56005 TSNO
PAHO 250453Z 26007KT 10SM OVC070 13/08 A2993 RMK AO2 SLP134 T01280078
PAHO 250353Z 26007KT 10SM OVC080 13/08 A2993 RMK AO2 SLP134 T01280078
PAHO 250253Z 25007KT 10SM FEW075 OVC095 13/08 A2994 RMK AO2 SLP137 T01330083 58008
PAHO 250153Z 26008KT 10SM FEW041 SCT080 BKN095 14/09 A2995 RMK AO2 SLP141 T01390094
PAHO 250053Z 25009KT 10SM OVC060 13/09 A2996 RMK AO2 SLP144 T01280094
PAHO 242353Z 25010KT 10SM OVC060 13/09 A2996 RMK AO2 SLP146 T01280094 10139 20117 58005
PAHO 242253Z 25010KT 10SM OVC060 13/09 A2996 RMK AO2 SLP147 T01330089
PAHO 242153Z 26009KT 10SM OVC060 12/09 A2997 RMK AO2 SLP150 T01220089
PAHO 242053Z 24009KT 10SM OVC060 13/08 A2998 RMK AO2 SLP150 T01280078 55003
PAHO 241953Z VRB03KT 10SM BKN070 13/07 A2997 RMK AO2 SLP150 T01280067
PAHO 241853Z 08003KT 10SM BKN070 12/07 A2997 RMK AO2 SLP150 T01220067
PAHO 241753Z 05005KT 10SM BKN075 12/07 A2998 RMK AO2 SLP154 60000 T01220072 10122 20033 56010
PAHO 241653Z 07007KT 10SM CLR 10/07 A3000 RMK AO2 SLP158 P0000 T01000067
PAHO 241553Z 00000KT 10SM BKN060 09/07 A3000 RMK AO2 SLP158 T00940067
PAHO 241453Z 36003KT 10SM SCT065 05/04 A3001 RMK AO2 SLP164 T00500044 55004
PAHO 241353Z AUTO 00000KT 10SM CLR 04/04 A3001 RMK AO2 SLP163 T00440039 TSNO
PAHO 241253Z AUTO 06003KT 10SM CLR 04/04 A3002 RMK AO2 SLP167 T00440039 TSNO
PAHO 241153Z AUTO 04005KT 10SM CLR 06/05 A3003 RMK AO2 SLP168 T00560050 10100 20044 56008 TSNO
PAHO 241053Z AUTO 00000KT 10SM OVC060 06/05 A3003 RMK AO2 SLP170 T00610050 TSNO
PAHO 240953Z AUTO 00000KT 10SM CLR 05/04 A3004 RMK AO2 SLP173 T00500039 TSNO
PAHO 240853Z AUTO 04004KT 10SM CLR 06/05 A3005 RMK AO2 SLP177 T00560050 401330056 56002 TSNO
PAHO 240753Z AUTO 26003KT 10SM CLR 08/07 A3005 RMK AO2 SLP177 T00830067 TSNO
PAHO 240653Z AUTO 21006KT 10SM OVC055 09/08 A3005 RMK AO2 SLP177 T00940078 TSNO
PAHO 240553Z AUTO 24006KT 10SM OVC055 10/06 A3006 RMK AO2 SLP179 T01000061 10133 20100 58006 TSNO
PAHO 240453Z 24007KT 10SM BKN050 10/07 A3006 RMK AO2 SLP181 T01000072
PAHO 240353Z 25009KT 10SM FEW043 OVC050 10/07 A3008 RMK AO2 SLP184 T01000072
PAHO 240253Z 25013KT 10SM SCT032 OVC055 11/07 A3008 RMK AO2 SLP185 T01060072 56006
PAHO 240153Z 25013G17KT 10SM BKN037 OVC055 11/07 A3008 RMK AO2 SLP186 T01110067
PAHO 240053Z 25012KT 10SM SCT032 OVC060 12/08 A3009 RMK AO2 SLP188 T01220078
PAHO 232353Z 24006KT 10SM OVC055 13/08 A3009 RMK AO2 SLP191 T01280083 10133 20106 58007
PAHO 232253Z AUTO VRB06KT 10SM OVC050 13/07 A3010 RMK AO2 SLP194 T01280067 TSNO
PAHO 232153Z 26007KT 10SM OVC048 12/07 A3011 RMK AO2 SLP196 T01170072
PAHO 232053Z 26008KT 10SM FEW027 OVC046 12/07 A3012 RMK AO2 SLP198 T01170067 58007
PAHO 231953Z 25005KT 10SM OVC049 11/06 A3012 RMK AO2 SLP201 T01110061
PAHO 231900Z 28005KT 10SM FEW031 OVC050 11/07 A3013 RMK AO2 T01110067
PAHO 231853Z 27005KT 10SM OVC029 11/07 A3013 RMK AO2 SLP204 T01110072